sensor_id;sensor_type;location;lat;lon;timestamp;P1;durP1;ratioP1;P2;durP2;ratioP2
51883;SDS011;37915;53.254;6.598;2022-12-18T00:00:44;65.70;;;23.98;;
51883;SDS011;37915;53.254;6.598;2022-12-18T00:03:12;70.40;;;25.25;;
51883;SDS011;37915;53.254;6.598;2022-12-18T00:05:45;60.88;;;22.48;;
51883;SDS011;37915;53.254;6.598;2022-12-18T00:08:15;51.22;;;21.10;;
51883;SDS011;37915;53.254;6.598;2022-12-18T00:10:42;61.63;;;23.27;;
51883;SDS011;37915;53.254;6.598;2022-12-18T00:13:08;61.88;;;22.45;;
51883;SDS011;37915;53.254;6.598;2022-12-18T00:15:35;59.47;;;25.25;;
51883;SDS011;37915;53.254;6.598;2022-12-18T00:18:04;53.53;;;22.98;;
51883;SDS011;37915;53.254;6.598;2022-12-18T00:20:30;62.17;;;23.67;;
51883;SDS011;37915;53.254;6.598;2022-12-18T00:22:56;62.30;;;24.85;;
51883;SDS011;37915;53.254;6.598;2022-12-18T00:25:22;57.13;;;22.63;;
51883;SDS011;37915;53.254;6.598;2022-12-18T00:27:48;65.50;;;24.40;;
51883;SDS011;37915;53.254;6.598;2022-12-18T00:30:14;67.07;;;27.05;;
51883;SDS011;37915;53.254;6.598;2022-12-18T00:32:39;66.45;;;24.38;;
51883;SDS011;37915;53.254;6.598;2022-12-18T00:35:06;52.42;;;21.75;;
51883;SDS011;37915;53.254;6.598;2022-12-18T00:37:35;59.20;;;23.15;;
51883;SDS011;37915;53.254;6.598;2022-12-18T00:40:01;59.05;;;23.63;;
51883;SDS011;37915;53.254;6.598;2022-12-18T00:42:27;61.45;;;24.67;;
51883;SDS011;37915;53.254;6.598;2022-12-18T00:45:11;61.38;;;24.35;;
51883;SDS011;37915;53.254;6.598;2022-12-18T00:47:37;61.20;;;23.58;;
51883;SDS011;37915;53.254;6.598;2022-12-18T00:50:03;67.22;;;25.67;;
51883;SDS011;37915;53.254;6.598;2022-12-18T00:52:29;67.95;;;23.98;;
51883;SDS011;37915;53.254;6.598;2022-12-18T00:54:55;62.17;;;23.67;;
51883;SDS011;37915;53.254;6.598;2022-12-18T00:57:20;56.70;;;23.33;;
51883;SDS011;37915;53.254;6.598;2022-12-18T00:59:46;63.03;;;25.23;;
51883;SDS011;37915;53.254;6.598;2022-12-18T01:02:12;62.17;;;24.38;;
51883;SDS011;37915;53.254;6.598;2022-12-18T01:04:37;52.80;;;18.95;;
51883;SDS011;37915;53.254;6.598;2022-12-18T01:07:03;58.28;;;24.65;;
51883;SDS011;37915;53.254;6.598;2022-12-18T01:09:29;67.15;;;27.63;;
51883;SDS011;37915;53.254;6.598;2022-12-18T01:11:54;68.40;;;26.52;;
51883;SDS011;37915;53.254;6.598;2022-12-18T01:14:20;64.68;;;25.38;;
51883;SDS011;37915;53.254;6.598;2022-12-18T01:16:46;61.85;;;23.08;;
51883;SDS011;37915;53.254;6.598;2022-12-18T01:19:11;58.45;;;23.52;;
51883;SDS011;37915;53.254;6.598;2022-12-18T01:21:37;60.45;;;22.33;;
51883;SDS011;37915;53.254;6.598;2022-12-18T01:24:03;51.17;;;21.90;;
51883;SDS011;37915;53.254;6.598;2022-12-18T01:26:29;57.22;;;21.90;;
51883;SDS011;37915;53.254;6.598;2022-12-18T01:28:55;53.28;;;22.40;;
51883;SDS011;37915;53.254;6.598;2022-12-18T01:31:23;58.88;;;22.05;;
51883;SDS011;37915;53.254;6.598;2022-12-18T01:33:51;60.70;;;24.85;;
51883;SDS011;37915;53.254;6.598;2022-12-18T01:36:19;51.50;;;22.55;;
51883;SDS011;37915;53.254;6.598;2022-12-18T01:38:49;54.20;;;22.75;;
51883;SDS011;37915;53.254;6.598;2022-12-18T01:41:17;65.35;;;24.13;;
51883;SDS011;37915;53.254;6.598;2022-12-18T01:46:10;60.55;;;23.00;;
51883;SDS011;37915;53.254;6.598;2022-12-18T01:48:37;58.88;;;23.55;;
51883;SDS011;37915;53.254;6.598;2022-12-18T01:51:04;56.17;;;22.95;;
51883;SDS011;37915;53.254;6.598;2022-12-18T01:53:31;63.25;;;23.00;;
51883;SDS011;37915;53.254;6.598;2022-12-18T01:55:57;55.72;;;24.25;;
51883;SDS011;37915;53.254;6.598;2022-12-18T01:58:27;49.90;;;21.48;;
51883;SDS011;37915;53.254;6.598;2022-12-18T02:01:00;62.47;;;24.23;;
51883;SDS011;37915;53.254;6.598;2022-12-18T02:03:26;53.42;;;21.95;;
51883;SDS011;37915;53.254;6.598;2022-12-18T02:14:18;64.22;;;23.55;;
51883;SDS011;37915;53.254;6.598;2022-12-18T02:28:28;66.05;;;24.73;;
51883;SDS011;37915;53.254;6.598;2022-12-18T02:30:57;52.22;;;21.85;;
51883;SDS011;37915;53.254;6.598;2022-12-18T02:33:27;61.85;;;23.75;;
51883;SDS011;37915;53.254;6.598;2022-12-18T02:35:54;59.08;;;22.73;;
51883;SDS011;37915;53.254;6.598;2022-12-18T02:38:22;57.78;;;24.92;;
51883;SDS011;37915;53.254;6.598;2022-12-18T02:40:49;65.15;;;24.25;;
51883;SDS011;37915;53.254;6.598;2022-12-18T02:43:18;58.95;;;25.05;;
51883;SDS011;37915;53.254;6.598;2022-12-18T02:45:47;59.00;;;23.15;;
51883;SDS011;37915;53.254;6.598;2022-12-18T02:48:27;61.92;;;23.67;;
51883;SDS011;37915;53.254;6.598;2022-12-18T02:53:32;54.30;;;22.95;;
51883;SDS011;37915;53.254;6.598;2022-12-18T02:56:07;64.97;;;24.50;;
51883;SDS011;37915;53.254;6.598;2022-12-18T03:01:19;61.58;;;23.75;;
51883;SDS011;37915;53.254;6.598;2022-12-18T03:03:51;58.83;;;23.10;;
51883;SDS011;37915;53.254;6.598;2022-12-18T03:06:32;54.42;;;23.63;;
51883;SDS011;37915;53.254;6.598;2022-12-18T03:09:03;60.60;;;23.65;;
51883;SDS011;37915;53.254;6.598;2022-12-18T03:11:43;65.55;;;23.75;;
51883;SDS011;37915;53.254;6.598;2022-12-18T03:14:32;66.03;;;21.60;;
51883;SDS011;37915;53.254;6.598;2022-12-18T03:17:02;58.95;;;23.23;;
51883;SDS011;37915;53.254;6.598;2022-12-18T03:19:31;57.72;;;23.55;;
51883;SDS011;37915;53.254;6.598;2022-12-18T03:21:58;64.93;;;23.77;;
51883;SDS011;37915;53.254;6.598;2022-12-18T03:24:28;52.50;;;23.15;;
51883;SDS011;37915;53.254;6.598;2022-12-18T03:27:00;57.33;;;21.45;;
51883;SDS011;37915;53.254;6.598;2022-12-18T03:29:31;56.28;;;23.35;;
51883;SDS011;37915;53.254;6.598;2022-12-18T03:32:10;70.82;;;23.95;;
51883;SDS011;37915;53.254;6.598;2022-12-18T03:34:40;55.55;;;22.13;;
51883;SDS011;37915;53.254;6.598;2022-12-18T03:37:10;59.13;;;24.05;;
51883;SDS011;37915;53.254;6.598;2022-12-18T03:39:35;64.95;;;24.75;;
51883;SDS011;37915;53.254;6.598;2022-12-18T03:42:15;57.50;;;22.98;;
51883;SDS011;37915;53.254;6.598;2022-12-18T03:45:14;53.10;;;23.40;;
51883;SDS011;37915;53.254;6.598;2022-12-18T03:53:21;63.67;;;24.80;;
51883;SDS011;37915;53.254;6.598;2022-12-18T03:55:51;78.97;;;24.98;;
51883;SDS011;37915;53.254;6.598;2022-12-18T03:58:19;59.80;;;23.33;;
51883;SDS011;37915;53.254;6.598;2022-12-18T04:00:49;70.03;;;27.17;;
51883;SDS011;37915;53.254;6.598;2022-12-18T04:03:17;55.88;;;23.05;;
51883;SDS011;37915;53.254;6.598;2022-12-18T04:05:46;61.22;;;25.67;;
51883;SDS011;37915;53.254;6.598;2022-12-18T04:08:13;62.33;;;24.65;;
51883;SDS011;37915;53.254;6.598;2022-12-18T04:10:40;64.63;;;24.58;;
51883;SDS011;37915;53.254;6.598;2022-12-18T04:13:05;57.70;;;23.95;;
51883;SDS011;37915;53.254;6.598;2022-12-18T04:15:33;62.13;;;24.27;;
51883;SDS011;37915;53.254;6.598;2022-12-18T04:18:00;58.13;;;23.63;;
51883;SDS011;37915;53.254;6.598;2022-12-18T04:20:26;60.80;;;23.40;;
51883;SDS011;37915;53.254;6.598;2022-12-18T04:22:52;67.35;;;27.00;;
51883;SDS011;37915;53.254;6.598;2022-12-18T04:25:18;65.63;;;24.08;;
51883;SDS011;37915;53.254;6.598;2022-12-18T04:27:44;58.58;;;24.48;;
51883;SDS011;37915;53.254;6.598;2022-12-18T04:30:10;68.57;;;25.63;;
51883;SDS011;37915;53.254;6.598;2022-12-18T04:32:36;64.75;;;24.42;;
51883;SDS011;37915;53.254;6.598;2022-12-18T04:35:01;68.75;;;25.80;;
51883;SDS011;37915;53.254;6.598;2022-12-18T04:37:29;58.50;;;25.17;;
51883;SDS011;37915;53.254;6.598;2022-12-18T04:39:55;65.55;;;25.75;;
51883;SDS011;37915;53.254;6.598;2022-12-18T04:42:21;60.90;;;25.08;;
51883;SDS011;37915;53.254;6.598;2022-12-18T04:44:46;65.80;;;24.27;;
51883;SDS011;37915;53.254;6.598;2022-12-18T04:47:12;61.20;;;25.17;;
51883;SDS011;37915;53.254;6.598;2022-12-18T04:49:38;59.15;;;23.60;;
51883;SDS011;37915;53.254;6.598;2022-12-18T04:52:03;56.75;;;23.30;;
51883;SDS011;37915;53.254;6.598;2022-12-18T04:54:29;55.42;;;23.08;;
51883;SDS011;37915;53.254;6.598;2022-12-18T04:56:55;54.90;;;23.10;;
51883;SDS011;37915;53.254;6.598;2022-12-18T04:59:20;60.97;;;24.02;;
51883;SDS011;37915;53.254;6.598;2022-12-18T05:01:46;63.47;;;24.23;;
51883;SDS011;37915;53.254;6.598;2022-12-18T05:04:12;54.65;;;21.70;;
51883;SDS011;37915;53.254;6.598;2022-12-18T05:06:37;55.50;;;23.17;;
51883;SDS011;37915;53.254;6.598;2022-12-18T05:09:03;59.85;;;21.88;;
51883;SDS011;37915;53.254;6.598;2022-12-18T05:11:29;51.70;;;23.17;;
51883;SDS011;37915;53.254;6.598;2022-12-18T05:13:55;56.50;;;22.13;;
51883;SDS011;37915;53.254;6.598;2022-12-18T05:16:21;57.50;;;21.95;;
51883;SDS011;37915;53.254;6.598;2022-12-18T05:18:47;63.90;;;22.90;;
51883;SDS011;37915;53.254;6.598;2022-12-18T05:21:12;61.13;;;22.17;;
51883;SDS011;37915;53.254;6.598;2022-12-18T05:23:38;55.58;;;23.25;;
51883;SDS011;37915;53.254;6.598;2022-12-18T05:26:04;53.20;;;21.95;;
51883;SDS011;37915;53.254;6.598;2022-12-18T05:28:31;53.65;;;21.40;;
51883;SDS011;37915;53.254;6.598;2022-12-18T05:30:59;54.47;;;23.50;;
51883;SDS011;37915;53.254;6.598;2022-12-18T05:33:28;57.58;;;21.58;;
51883;SDS011;37915;53.254;6.598;2022-12-18T05:35:56;63.35;;;23.38;;
51883;SDS011;37915;53.254;6.598;2022-12-18T05:38:27;51.47;;;22.13;;
51883;SDS011;37915;53.254;6.598;2022-12-18T05:40:54;54.78;;;22.10;;
51883;SDS011;37915;53.254;6.598;2022-12-18T05:43:20;60.25;;;22.48;;
51883;SDS011;37915;53.254;6.598;2022-12-18T05:45:49;55.50;;;22.98;;
51883;SDS011;37915;53.254;6.598;2022-12-18T05:48:16;68.25;;;22.42;;
51883;SDS011;37915;53.254;6.598;2022-12-18T05:50:43;50.15;;;21.55;;
51883;SDS011;37915;53.254;6.598;2022-12-18T05:53:13;51.75;;;21.85;;
51883;SDS011;37915;53.254;6.598;2022-12-18T05:55:40;47.53;;;20.45;;
51883;SDS011;37915;53.254;6.598;2022-12-18T05:58:07;51.95;;;20.02;;
51883;SDS011;37915;53.254;6.598;2022-12-18T06:00:38;45.60;;;19.30;;
51883;SDS011;37915;53.254;6.598;2022-12-18T06:03:06;57.08;;;22.08;;
51883;SDS011;37915;53.254;6.598;2022-12-18T06:05:40;59.05;;;20.98;;
51883;SDS011;37915;53.254;6.598;2022-12-18T06:08:07;51.25;;;19.60;;
51883;SDS011;37915;53.254;6.598;2022-12-18T06:10:34;49.28;;;20.77;;
51883;SDS011;37915;53.254;6.598;2022-12-18T06:12:59;50.47;;;21.15;;
51883;SDS011;37915;53.254;6.598;2022-12-18T06:15:25;52.30;;;22.27;;
51883;SDS011;37915;53.254;6.598;2022-12-18T06:17:51;50.72;;;19.67;;
51883;SDS011;37915;53.254;6.598;2022-12-18T06:20:17;47.85;;;20.73;;
51883;SDS011;37915;53.254;6.598;2022-12-18T06:22:43;50.33;;;19.98;;
51883;SDS011;37915;53.254;6.598;2022-12-18T06:25:09;51.45;;;20.40;;
51883;SDS011;37915;53.254;6.598;2022-12-18T06:27:34;44.72;;;18.95;;
51883;SDS011;37915;53.254;6.598;2022-12-18T06:30:00;47.83;;;18.67;;
51883;SDS011;37915;53.254;6.598;2022-12-18T06:32:26;45.70;;;20.83;;
51883;SDS011;37915;53.254;6.598;2022-12-18T06:34:52;45.75;;;17.73;;
51883;SDS011;37915;53.254;6.598;2022-12-18T06:37:19;40.65;;;18.60;;
51883;SDS011;37915;53.254;6.598;2022-12-18T06:39:44;46.15;;;18.20;;
51883;SDS011;37915;53.254;6.598;2022-12-18T06:42:10;34.83;;;16.75;;
51883;SDS011;37915;53.254;6.598;2022-12-18T06:44:36;38.90;;;18.17;;
51883;SDS011;37915;53.254;6.598;2022-12-18T06:47:01;52.22;;;18.27;;
51883;SDS011;37915;53.254;6.598;2022-12-18T06:49:27;40.92;;;17.08;;
51883;SDS011;37915;53.254;6.598;2022-12-18T06:51:53;45.08;;;18.88;;
51883;SDS011;37915;53.254;6.598;2022-12-18T06:54:19;42.42;;;19.08;;
51883;SDS011;37915;53.254;6.598;2022-12-18T06:56:45;49.28;;;18.02;;
51883;SDS011;37915;53.254;6.598;2022-12-18T06:59:11;45.22;;;18.33;;
51883;SDS011;37915;53.254;6.598;2022-12-18T07:01:37;38.55;;;16.80;;
51883;SDS011;37915;53.254;6.598;2022-12-18T07:04:03;37.25;;;17.23;;
51883;SDS011;37915;53.254;6.598;2022-12-18T07:06:29;37.55;;;17.05;;
51883;SDS011;37915;53.254;6.598;2022-12-18T07:08:55;34.78;;;16.50;;
51883;SDS011;37915;53.254;6.598;2022-12-18T07:11:21;40.58;;;17.23;;
51883;SDS011;37915;53.254;6.598;2022-12-18T07:13:47;35.65;;;16.02;;
51883;SDS011;37915;53.254;6.598;2022-12-18T07:16:17;36.97;;;16.02;;
51883;SDS011;37915;53.254;6.598;2022-12-18T07:18:44;43.80;;;16.98;;
51883;SDS011;37915;53.254;6.598;2022-12-18T07:21:11;35.38;;;16.42;;
51883;SDS011;37915;53.254;6.598;2022-12-18T07:23:38;33.53;;;15.85;;
51883;SDS011;37915;53.254;6.598;2022-12-18T07:26:05;38.58;;;16.65;;
51883;SDS011;37915;53.254;6.598;2022-12-18T07:28:34;30.20;;;14.85;;
51883;SDS011;37915;53.254;6.598;2022-12-18T07:31:20;28.80;;;14.05;;
51883;SDS011;37915;53.254;6.598;2022-12-18T07:33:46;30.83;;;15.10;;
51883;SDS011;37915;53.254;6.598;2022-12-18T07:36:13;36.78;;;15.38;;
51883;SDS011;37915;53.254;6.598;2022-12-18T07:38:39;35.70;;;15.48;;
51883;SDS011;37915;53.254;6.598;2022-12-18T07:41:09;32.58;;;15.43;;
51883;SDS011;37915;53.254;6.598;2022-12-18T07:43:36;32.92;;;15.48;;
51883;SDS011;37915;53.254;6.598;2022-12-18T07:46:03;30.58;;;13.60;;
51883;SDS011;37915;53.254;6.598;2022-12-18T07:48:29;31.88;;;14.90;;
51883;SDS011;37915;53.254;6.598;2022-12-18T07:51:03;29.25;;;14.27;;
51883;SDS011;37915;53.254;6.598;2022-12-18T07:53:31;30.90;;;14.02;;
51883;SDS011;37915;53.254;6.598;2022-12-18T07:55:59;28.65;;;13.70;;
51883;SDS011;37915;53.254;6.598;2022-12-18T07:58:27;34.13;;;14.93;;
51883;SDS011;37915;53.254;6.598;2022-12-18T08:00:54;30.67;;;14.13;;
51883;SDS011;37915;53.254;6.598;2022-12-18T08:03:26;27.33;;;14.13;;
51883;SDS011;37915;53.254;6.598;2022-12-18T08:05:52;30.42;;;13.25;;
51883;SDS011;37915;53.254;6.598;2022-12-18T08:08:22;27.60;;;14.27;;
51883;SDS011;37915;53.254;6.598;2022-12-18T08:10:48;29.88;;;14.55;;
51883;SDS011;37915;53.254;6.598;2022-12-18T08:13:14;27.98;;;13.02;;
51883;SDS011;37915;53.254;6.598;2022-12-18T08:15:40;32.03;;;14.25;;
51883;SDS011;37915;53.254;6.598;2022-12-18T08:18:05;29.35;;;15.85;;
51883;SDS011;37915;53.254;6.598;2022-12-18T08:20:31;35.10;;;14.82;;
51883;SDS011;37915;53.254;6.598;2022-12-18T08:22:57;27.98;;;14.27;;
51883;SDS011;37915;53.254;6.598;2022-12-18T08:25:23;26.77;;;13.63;;
51883;SDS011;37915;53.254;6.598;2022-12-18T08:27:50;30.13;;;15.07;;
51883;SDS011;37915;53.254;6.598;2022-12-18T08:30:15;30.38;;;14.75;;
51883;SDS011;37915;53.254;6.598;2022-12-18T08:32:41;27.38;;;13.93;;
51883;SDS011;37915;53.254;6.598;2022-12-18T08:35:07;31.10;;;15.02;;
51883;SDS011;37915;53.254;6.598;2022-12-18T08:37:33;35.80;;;13.93;;
51883;SDS011;37915;53.254;6.598;2022-12-18T08:39:59;31.05;;;14.23;;
51883;SDS011;37915;53.254;6.598;2022-12-18T08:42:25;28.75;;;14.77;;
51883;SDS011;37915;53.254;6.598;2022-12-18T08:45:09;34.25;;;15.90;;
51883;SDS011;37915;53.254;6.598;2022-12-18T08:47:35;28.58;;;13.52;;
51883;SDS011;37915;53.254;6.598;2022-12-18T08:50:01;25.70;;;13.23;;
51883;SDS011;37915;53.254;6.598;2022-12-18T08:52:27;26.40;;;13.50;;
51883;SDS011;37915;53.254;6.598;2022-12-18T08:54:53;31.73;;;14.30;;
51883;SDS011;37915;53.254;6.598;2022-12-18T08:57:19;29.30;;;13.80;;
51883;SDS011;37915;53.254;6.598;2022-12-18T08:59:44;29.35;;;14.57;;
51883;SDS011;37915;53.254;6.598;2022-12-18T09:02:10;30.73;;;14.63;;
51883;SDS011;37915;53.254;6.598;2022-12-18T09:04:36;27.00;;;14.20;;
51883;SDS011;37915;53.254;6.598;2022-12-18T09:07:02;29.65;;;13.50;;
51883;SDS011;37915;53.254;6.598;2022-12-18T09:09:27;31.63;;;13.52;;
51883;SDS011;37915;53.254;6.598;2022-12-18T09:11:53;24.35;;;12.35;;
51883;SDS011;37915;53.254;6.598;2022-12-18T09:14:19;29.13;;;13.57;;
51883;SDS011;37915;53.254;6.598;2022-12-18T09:16:45;30.20;;;13.95;;
51883;SDS011;37915;53.254;6.598;2022-12-18T09:19:10;28.80;;;13.35;;
51883;SDS011;37915;53.254;6.598;2022-12-18T09:21:36;23.58;;;13.07;;
51883;SDS011;37915;53.254;6.598;2022-12-18T09:24:04;23.95;;;13.70;;
51883;SDS011;37915;53.254;6.598;2022-12-18T09:26:30;26.52;;;13.57;;
51883;SDS011;37915;53.254;6.598;2022-12-18T09:28:56;26.10;;;13.30;;
51883;SDS011;37915;53.254;6.598;2022-12-18T09:31:22;31.00;;;12.77;;
51883;SDS011;37915;53.254;6.598;2022-12-18T09:33:49;26.55;;;12.65;;
51883;SDS011;37915;53.254;6.598;2022-12-18T09:36:15;24.40;;;11.45;;
51883;SDS011;37915;53.254;6.598;2022-12-18T09:38:42;27.67;;;13.65;;
51883;SDS011;37915;53.254;6.598;2022-12-18T09:43:42;21.60;;;11.95;;
51883;SDS011;37915;53.254;6.598;2022-12-18T09:46:29;22.55;;;11.90;;
51883;SDS011;37915;53.254;6.598;2022-12-18T09:49:02;23.35;;;12.35;;
51883;SDS011;37915;53.254;6.598;2022-12-18T09:51:33;21.58;;;11.15;;
51883;SDS011;37915;53.254;6.598;2022-12-18T09:56:42;21.33;;;10.38;;
51883;SDS011;37915;53.254;6.598;2022-12-18T09:59:29;19.42;;;10.20;;
51883;SDS011;37915;53.254;6.598;2022-12-18T10:01:58;25.65;;;11.98;;
51883;SDS011;37915;53.254;6.598;2022-12-18T10:04:24;21.92;;;11.13;;
51883;SDS011;37915;53.254;6.598;2022-12-18T10:06:58;21.77;;;11.48;;
51883;SDS011;37915;53.254;6.598;2022-12-18T10:10:01;18.25;;;10.80;;
51883;SDS011;37915;53.254;6.598;2022-12-18T10:21:00;16.45;;;9.50;;
51883;SDS011;37915;53.254;6.598;2022-12-18T10:23:37;23.33;;;9.80;;
51883;SDS011;37915;53.254;6.598;2022-12-18T10:26:25;19.90;;;10.07;;
51883;SDS011;37915;53.254;6.598;2022-12-18T10:28:51;16.65;;;8.68;;
51883;SDS011;37915;53.254;6.598;2022-12-18T10:31:19;17.35;;;9.55;;
51883;SDS011;37915;53.254;6.598;2022-12-18T10:33:46;17.05;;;8.88;;
51883;SDS011;37915;53.254;6.598;2022-12-18T10:36:12;16.98;;;9.80;;
51883;SDS011;37915;53.254;6.598;2022-12-18T10:38:39;22.73;;;11.02;;
51883;SDS011;37915;53.254;6.598;2022-12-18T10:41:06;17.35;;;10.07;;
51883;SDS011;37915;53.254;6.598;2022-12-18T10:43:45;18.15;;;10.05;;
51883;SDS011;37915;53.254;6.598;2022-12-18T10:48:39;14.80;;;8.35;;
51883;SDS011;37915;53.254;6.598;2022-12-18T10:51:16;12.35;;;7.15;;
51883;SDS011;37915;53.254;6.598;2022-12-18T10:56:21;13.18;;;6.57;;
51883;SDS011;37915;53.254;6.598;2022-12-18T11:01:31;12.82;;;6.53;;
51883;SDS011;37915;53.254;6.598;2022-12-18T11:04:13;14.68;;;7.50;;
51883;SDS011;37915;53.254;6.598;2022-12-18T11:06:56;13.27;;;6.28;;
51883;SDS011;37915;53.254;6.598;2022-12-18T11:09:30;14.10;;;7.15;;
51883;SDS011;37915;53.254;6.598;2022-12-18T11:11:58;11.70;;;6.25;;
51883;SDS011;37915;53.254;6.598;2022-12-18T11:14:49;23.00;;;11.88;;
51883;SDS011;37915;53.254;6.598;2022-12-18T11:17:29;16.00;;;8.68;;
51883;SDS011;37915;53.254;6.598;2022-12-18T11:22:32;26.52;;;13.63;;
51883;SDS011;37915;53.254;6.598;2022-12-18T11:27:27;27.63;;;16.15;;
51883;SDS011;37915;53.254;6.598;2022-12-18T11:30:06;39.28;;;19.90;;
51883;SDS011;37915;53.254;6.598;2022-12-18T11:32:58;27.17;;;15.55;;
51883;SDS011;37915;53.254;6.598;2022-12-18T11:35:35;15.18;;;8.80;;
51883;SDS011;37915;53.254;6.598;2022-12-18T11:38:10;13.82;;;7.20;;
51883;SDS011;37915;53.254;6.598;2022-12-18T11:40:52;13.20;;;6.63;;
51883;SDS011;37915;53.254;6.598;2022-12-18T11:43:28;14.25;;;7.20;;
51883;SDS011;37915;53.254;6.598;2022-12-18T11:46:13;12.82;;;6.93;;
51883;SDS011;37915;53.254;6.598;2022-12-18T11:51:41;12.23;;;6.40;;
51883;SDS011;37915;53.254;6.598;2022-12-18T11:54:13;10.80;;;6.03;;
51883;SDS011;37915;53.254;6.598;2022-12-18T11:56:58;11.48;;;5.85;;
51883;SDS011;37915;53.254;6.598;2022-12-18T11:59:58;9.20;;;5.22;;
51883;SDS011;37915;53.254;6.598;2022-12-18T12:30:26;9.57;;;5.10;;
51883;SDS011;37915;53.254;6.598;2022-12-18T12:33:12;9.02;;;5.25;;
51883;SDS011;37915;53.254;6.598;2022-12-18T12:35:44;8.90;;;4.60;;
51883;SDS011;37915;53.254;6.598;2022-12-18T12:38:27;8.98;;;4.60;;
51883;SDS011;37915;53.254;6.598;2022-12-18T12:41:01;10.30;;;5.43;;
51883;SDS011;37915;53.254;6.598;2022-12-18T12:43:41;7.43;;;5.18;;
51883;SDS011;37915;53.254;6.598;2022-12-18T12:46:13;10.40;;;5.00;;
51883;SDS011;37915;53.254;6.598;2022-12-18T12:51:21;9.70;;;4.80;;
51883;SDS011;37915;53.254;6.598;2022-12-18T12:53:55;10.15;;;5.25;;
51883;SDS011;37915;53.254;6.598;2022-12-18T12:56:24;9.48;;;5.28;;
51883;SDS011;37915;53.254;6.598;2022-12-18T13:01:40;10.02;;;5.63;;
51883;SDS011;37915;53.254;6.598;2022-12-18T13:07:26;10.90;;;6.10;;
51883;SDS011;37915;53.254;6.598;2022-12-18T13:12:58;9.13;;;4.80;;
51883;SDS011;37915;53.254;6.598;2022-12-18T13:15:37;11.75;;;6.20;;
51883;SDS011;37915;53.254;6.598;2022-12-18T13:18:11;11.75;;;5.78;;
51883;SDS011;37915;53.254;6.598;2022-12-18T13:20:39;11.18;;;5.43;;
51883;SDS011;37915;53.254;6.598;2022-12-18T13:23:28;10.60;;;5.95;;
51883;SDS011;37915;53.254;6.598;2022-12-18T13:25:58;8.88;;;5.45;;
51883;SDS011;37915;53.254;6.598;2022-12-18T13:31:58;12.30;;;5.72;;
51883;SDS011;37915;53.254;6.598;2022-12-18T13:36:42;10.20;;;5.65;;
51883;SDS011;37915;53.254;6.598;2022-12-18T13:41:47;9.88;;;5.05;;
51883;SDS011;37915;53.254;6.598;2022-12-18T13:44:25;13.07;;;5.70;;
51883;SDS011;37915;53.254;6.598;2022-12-18T13:47:00;9.07;;;5.03;;
51883;SDS011;37915;53.254;6.598;2022-12-18T13:49:36;9.20;;;5.20;;
51883;SDS011;37915;53.254;6.598;2022-12-18T13:55:05;9.35;;;4.85;;
51883;SDS011;37915;53.254;6.598;2022-12-18T13:57:39;9.95;;;5.15;;
51883;SDS011;37915;53.254;6.598;2022-12-18T14:00:40;10.60;;;6.05;;
51883;SDS011;37915;53.254;6.598;2022-12-18T14:02:57;9.25;;;5.15;;
51883;SDS011;37915;53.254;6.598;2022-12-18T14:07:53;8.88;;;4.97;;
51883;SDS011;37915;53.254;6.598;2022-12-18T14:10:20;12.43;;;6.15;;
51883;SDS011;37915;53.254;6.598;2022-12-18T14:12:47;9.48;;;4.43;;
51883;SDS011;37915;53.254;6.598;2022-12-18T14:17:52;10.40;;;4.90;;
51883;SDS011;37915;53.254;6.598;2022-12-18T14:20:34;9.13;;;5.00;;
51883;SDS011;37915;53.254;6.598;2022-12-18T14:23:00;7.78;;;4.90;;
51883;SDS011;37915;53.254;6.598;2022-12-18T14:25:27;8.52;;;4.38;;
51883;SDS011;37915;53.254;6.598;2022-12-18T14:28:02;10.00;;;5.57;;
51883;SDS011;37915;53.254;6.598;2022-12-18T14:30:35;11.13;;;5.82;;
51883;SDS011;37915;53.254;6.598;2022-12-18T14:35:33;10.18;;;5.45;;
51883;SDS011;37915;53.254;6.598;2022-12-18T14:40:59;10.23;;;5.50;;
51883;SDS011;37915;53.254;6.598;2022-12-18T14:43:29;10.40;;;6.05;;
51883;SDS011;37915;53.254;6.598;2022-12-18T14:45:57;9.38;;;5.63;;
51883;SDS011;37915;53.254;6.598;2022-12-18T14:48:31;12.68;;;5.90;;
51883;SDS011;37915;53.254;6.598;2022-12-18T14:53:34;9.88;;;5.43;;
51883;SDS011;37915;53.254;6.598;2022-12-18T14:56:20;11.85;;;5.50;;
51883;SDS011;37915;53.254;6.598;2022-12-18T14:58:47;16.23;;;5.45;;
51883;SDS011;37915;53.254;6.598;2022-12-18T15:01:19;11.57;;;5.95;;
51883;SDS011;37915;53.254;6.598;2022-12-18T15:03:47;10.65;;;5.35;;
51883;SDS011;37915;53.254;6.598;2022-12-18T15:06:17;13.38;;;6.28;;
51883;SDS011;37915;53.254;6.598;2022-12-18T15:08:51;9.25;;;5.30;;
51883;SDS011;37915;53.254;6.598;2022-12-18T15:11:54;9.10;;;3.92;;
51883;SDS011;37915;53.254;6.598;2022-12-18T15:14:24;14.25;;;7.60;;
51883;SDS011;37915;53.254;6.598;2022-12-18T15:16:57;12.75;;;6.22;;
51883;SDS011;37915;53.254;6.598;2022-12-18T15:19:38;9.70;;;5.45;;
51883;SDS011;37915;53.254;6.598;2022-12-18T15:22:39;9.93;;;5.63;;
51883;SDS011;37915;53.254;6.598;2022-12-18T15:24:59;11.85;;;5.97;;
51883;SDS011;37915;53.254;6.598;2022-12-18T15:27:33;11.95;;;6.10;;
51883;SDS011;37915;53.254;6.598;2022-12-18T15:32:42;11.57;;;6.55;;
51883;SDS011;37915;53.254;6.598;2022-12-18T15:37:39;12.15;;;7.07;;
51883;SDS011;37915;53.254;6.598;2022-12-18T15:40:05;11.02;;;6.40;;
51883;SDS011;37915;53.254;6.598;2022-12-18T15:42:32;9.50;;;6.85;;
51883;SDS011;37915;53.254;6.598;2022-12-18T15:45:16;9.90;;;5.72;;
51883;SDS011;37915;53.254;6.598;2022-12-18T15:47:43;12.93;;;7.35;;
51883;SDS011;37915;53.254;6.598;2022-12-18T15:50:09;10.13;;;6.07;;
51883;SDS011;37915;53.254;6.598;2022-12-18T15:52:41;13.00;;;7.32;;
51883;SDS011;37915;53.254;6.598;2022-12-18T15:55:13;16.17;;;8.88;;
51883;SDS011;37915;53.254;6.598;2022-12-18T15:57:58;12.57;;;6.70;;
51883;SDS011;37915;53.254;6.598;2022-12-18T16:00:24;11.45;;;7.38;;
51883;SDS011;37915;53.254;6.598;2022-12-18T16:02:50;13.63;;;7.15;;
51883;SDS011;37915;53.254;6.598;2022-12-18T16:05:17;12.02;;;6.75;;
51883;SDS011;37915;53.254;6.598;2022-12-18T16:07:45;14.13;;;7.80;;
51883;SDS011;37915;53.254;6.598;2022-12-18T16:10:11;14.25;;;6.88;;
51883;SDS011;37915;53.254;6.598;2022-12-18T16:12:37;11.63;;;7.25;;
51883;SDS011;37915;53.254;6.598;2022-12-18T16:15:04;16.17;;;7.28;;
51883;SDS011;37915;53.254;6.598;2022-12-18T16:17:30;12.55;;;7.45;;
51883;SDS011;37915;53.254;6.598;2022-12-18T16:19:56;12.13;;;7.15;;
51883;SDS011;37915;53.254;6.598;2022-12-18T16:22:27;13.30;;;7.03;;
51883;SDS011;37915;53.254;6.598;2022-12-18T16:24:54;12.43;;;7.78;;
51883;SDS011;37915;53.254;6.598;2022-12-18T16:27:21;12.48;;;7.18;;
51883;SDS011;37915;53.254;6.598;2022-12-18T16:29:48;12.63;;;7.10;;
51883;SDS011;37915;53.254;6.598;2022-12-18T16:32:16;13.80;;;7.53;;
51883;SDS011;37915;53.254;6.598;2022-12-18T16:34:43;12.88;;;8.13;;
51883;SDS011;37915;53.254;6.598;2022-12-18T16:37:10;14.65;;;7.47;;
51883;SDS011;37915;53.254;6.598;2022-12-18T16:39:38;15.40;;;7.90;;
51883;SDS011;37915;53.254;6.598;2022-12-18T16:42:05;13.63;;;7.82;;
51883;SDS011;37915;53.254;6.598;2022-12-18T16:44:44;12.13;;;6.63;;
51883;SDS011;37915;53.254;6.598;2022-12-18T16:47:11;12.85;;;7.45;;
51883;SDS011;37915;53.254;6.598;2022-12-18T16:49:37;12.23;;;6.85;;
51883;SDS011;37915;53.254;6.598;2022-12-18T16:52:04;10.15;;;6.35;;